createdAt,value
2022-11-16T00:02:16.787Z,12.00
2022-11-16T00:04:43.733Z,12.00
2022-11-16T00:07:10.777Z,12.00
2022-11-16T00:09:37.908Z,11.90
2022-11-16T00:12:07.562Z,12.00
2022-11-16T00:14:35.740Z,11.90
2022-11-16T00:17:03.830Z,11.90
2022-11-16T00:19:31.533Z,11.80
2022-11-16T00:21:59.039Z,11.80
2022-11-16T00:24:25.844Z,11.80
2022-11-16T00:26:54.857Z,11.70
2022-11-16T00:29:24.339Z,11.80
2022-11-16T00:31:52.271Z,11.70
2022-11-16T00:34:19.783Z,11.70
2022-11-16T00:36:47.046Z,11.70
2022-11-16T00:39:15.577Z,11.70
2022-11-16T00:41:43.293Z,11.60
2022-11-16T00:44:10.968Z,11.70
2022-11-16T00:46:37.815Z,11.60
2022-11-16T00:49:05.610Z,11.60
2022-11-16T00:51:33.779Z,11.60
2022-11-16T00:54:01.339Z,11.60
2022-11-16T00:56:28.068Z,11.60
2022-11-16T00:58:54.875Z,11.60
2022-11-16T01:01:23.854Z,11.50
2022-11-16T01:03:50.669Z,11.60
2022-11-16T01:06:17.919Z,11.50
2022-11-16T01:08:45.145Z,11.50
2022-11-16T01:11:33.990Z,11.40
2022-11-16T01:14:03.855Z,11.40
2022-11-16T01:16:30.685Z,11.40
2022-11-16T01:18:57.528Z,11.40
2022-11-16T01:21:24.753Z,11.40
2022-11-16T01:23:52.301Z,11.40
2022-11-16T01:26:19.176Z,11.40
2022-11-16T01:28:46.316Z,11.40
2022-11-16T01:31:13.160Z,11.30
2022-11-16T01:33:40.286Z,11.40
2022-11-16T01:36:14.842Z,11.30
2022-11-16T01:38:43.549Z,11.40
2022-11-16T01:41:17.561Z,11.30
2022-11-16T01:43:55.397Z,11.40
2022-11-16T01:46:22.541Z,11.40
2022-11-16T01:48:52.735Z,11.30
2022-11-16T01:51:19.882Z,11.30
2022-11-16T01:53:46.907Z,11.30
2022-11-16T01:56:13.598Z,11.30
2022-11-16T01:58:41.497Z,11.30
2022-11-16T02:01:08.582Z,11.30
2022-11-16T02:03:38.496Z,11.30
2022-11-16T02:06:28.147Z,11.30
2022-11-16T02:09:37.052Z,11.30
2022-11-16T02:12:13.233Z,11.30
2022-11-16T02:14:50.105Z,11.30
2022-11-16T02:17:40.693Z,11.30
2022-11-16T02:20:19.516Z,11.30
2022-11-16T02:22:55.513Z,11.20
2022-11-16T02:25:37.192Z,11.30
2022-11-16T02:28:28.179Z,11.20
2022-11-16T02:31:00.111Z,11.30
2022-11-16T02:33:35.169Z,11.30
2022-11-16T02:36:05.196Z,11.30
2022-11-16T02:38:37.415Z,11.20
2022-11-16T02:41:10.262Z,11.20
2022-11-16T02:43:41.784Z,11.20
2022-11-16T02:46:17.061Z,11.20
2022-11-16T02:48:48.663Z,11.20
2022-11-16T02:51:17.253Z,11.20
2022-11-16T02:54:12.810Z,11.20
2022-11-16T02:57:17.538Z,11.20
2022-11-16T02:59:51.846Z,11.20
2022-11-16T03:02:37.193Z,11.20
2022-11-16T03:05:03.939Z,11.20
2022-11-16T03:07:49.474Z,11.20
2022-11-16T03:10:38.923Z,11.20
2022-11-16T03:13:08.809Z,11.20
2022-11-16T03:15:41.668Z,11.20
2022-11-16T03:18:09.291Z,11.20
2022-11-16T03:20:39.040Z,11.20
2022-11-16T03:23:10.576Z,11.20
2022-11-16T03:25:43.504Z,11.20
2022-11-16T03:28:43.337Z,11.20
2022-11-16T03:31:28.348Z,11.20
2022-11-16T03:33:58.237Z,11.20
2022-11-16T03:36:32.255Z,11.30
2022-11-16T03:39:10.411Z,11.20
2022-11-16T03:41:40.944Z,11.20
2022-11-16T03:44:13.378Z,11.20
2022-11-16T03:46:43.508Z,11.20
2022-11-16T03:49:10.269Z,11.20
2022-11-16T03:51:37.657Z,11.10
2022-11-16T03:54:05.422Z,11.10
2022-11-16T03:56:34.770Z,11.10
2022-11-16T03:59:01.548Z,11.10
2022-11-16T04:01:30.687Z,11.10
2022-11-16T04:03:57.579Z,11.10
2022-11-16T04:06:43.221Z,11.10
2022-11-16T04:09:22.698Z,11.10
2022-11-16T04:12:08.755Z,11.10
2022-11-16T04:14:54.123Z,11.20
2022-11-16T04:17:42.828Z,11.20
2022-11-16T04:20:30.319Z,11.10
2022-11-16T04:23:26.934Z,11.10
2022-11-16T04:25:54.153Z,11.10
2022-11-16T04:28:25.048Z,11.00
2022-11-16T04:31:18.041Z,11.10
2022-11-16T04:34:11.077Z,11.10
2022-11-16T04:36:56.735Z,11.10
2022-11-16T04:39:23.516Z,11.00
2022-11-16T04:42:10.845Z,11.00
2022-11-16T04:45:00.791Z,11.00
2022-11-16T04:47:27.586Z,11.10
2022-11-16T04:50:00.543Z,11.00
2022-11-16T04:52:27.502Z,11.00
2022-11-16T04:54:56.841Z,11.00
2022-11-16T04:57:38.339Z,11.00
2022-11-16T05:00:13.366Z,11.00
2022-11-16T05:02:42.955Z,11.00
2022-11-16T05:05:10.450Z,11.00
2022-11-16T05:07:39.748Z,11.00
2022-11-16T05:10:07.386Z,11.00
2022-11-16T05:12:34.679Z,10.90
2022-11-16T05:15:01.852Z,10.90
2022-11-16T05:17:34.639Z,10.90
2022-11-16T05:20:20.193Z,10.90
2022-11-16T05:22:56.682Z,10.90
2022-11-16T05:25:24.080Z,10.90
2022-11-16T05:27:50.861Z,10.90
2022-11-16T05:30:17.692Z,10.90
2022-11-16T05:32:44.618Z,10.90
2022-11-16T05:35:11.264Z,10.90
2022-11-16T05:37:39.486Z,10.90
2022-11-16T05:40:07.516Z,10.80
2022-11-16T05:42:34.341Z,10.90
2022-11-16T05:45:01.261Z,11.00
2022-11-16T05:47:28.069Z,10.90
2022-11-16T05:49:54.793Z,10.80
2022-11-16T05:52:21.515Z,10.90
2022-11-16T05:54:48.236Z,10.90
2022-11-16T05:57:15.413Z,10.80
2022-11-16T05:59:42.577Z,10.80
2022-11-16T06:02:09.403Z,10.90
2022-11-16T06:04:36.102Z,10.80
2022-11-16T06:07:02.885Z,10.80
2022-11-16T06:09:29.647Z,10.80
2022-11-16T06:11:56.355Z,10.80
2022-11-16T06:14:23.232Z,10.80
2022-11-16T06:16:50.341Z,10.80
2022-11-16T06:19:17.153Z,10.70
2022-11-16T06:21:44.042Z,10.70
2022-11-16T06:24:11.588Z,10.70
2022-11-16T06:26:38.401Z,10.70
2022-11-16T06:29:05.268Z,10.70
2022-11-16T06:31:32.290Z,10.70
2022-11-16T06:33:58.982Z,10.70
2022-11-16T06:36:26.503Z,10.70
2022-11-16T06:38:53.457Z,10.80
2022-11-16T06:41:26.442Z,10.70
2022-11-16T06:43:53.593Z,10.70
2022-11-16T06:46:21.180Z,10.70
2022-11-16T06:48:48.796Z,10.70
2022-11-16T06:51:20.855Z,10.70
2022-11-16T06:53:47.725Z,10.80
2022-11-16T06:56:16.505Z,10.80
2022-11-16T06:58:43.301Z,10.80
2022-11-16T07:01:12.500Z,10.80
2022-11-16T07:03:39.415Z,10.80
2022-11-16T07:06:11.555Z,10.80
2022-11-16T07:08:39.131Z,10.80
2022-11-16T07:11:07.514Z,10.80
2022-11-16T07:13:35.594Z,10.80
2022-11-16T07:16:07.279Z,10.80
2022-11-16T07:18:39.283Z,10.80
2022-11-16T07:21:14.748Z,10.80
2022-11-16T07:23:44.363Z,10.90
2022-11-16T07:26:11.922Z,10.90
2022-11-16T07:28:43.299Z,10.80
2022-11-16T07:31:14.738Z,10.80
2022-11-16T07:33:41.690Z,10.90
2022-11-16T07:36:12.606Z,10.80
2022-11-16T07:38:39.205Z,10.80
2022-11-16T07:41:12.116Z,10.90
2022-11-16T07:43:39.880Z,10.90
2022-11-16T07:49:01.821Z,10.90
2022-11-16T07:51:28.671Z,10.80
2022-11-16T07:53:56.027Z,10.80
2022-11-16T07:56:25.543Z,10.70
2022-11-16T07:58:52.672Z,10.70
2022-11-16T08:01:20.135Z,10.60
2022-11-16T08:03:47.116Z,10.60
2022-11-16T08:06:17.133Z,10.60
2022-11-16T08:08:44.402Z,10.60
2022-11-16T08:11:12.646Z,10.60
2022-11-16T08:13:41.001Z,10.50
2022-11-16T08:16:13.484Z,10.50
2022-11-16T08:18:41.780Z,10.40
2022-11-16T08:21:10.905Z,10.40
2022-11-16T08:23:38.104Z,10.40
2022-11-16T08:26:11.369Z,10.30
2022-11-16T08:28:38.289Z,10.30
2022-11-16T08:31:11.356Z,10.30
2022-11-16T08:33:38.160Z,10.30
2022-11-16T08:36:10.998Z,10.30
2022-11-16T08:38:40.692Z,10.30
2022-11-16T08:41:07.785Z,10.30
2022-11-16T08:43:35.855Z,10.30
2022-11-16T08:46:03.141Z,10.30
2022-11-16T08:48:29.955Z,10.30
2022-11-16T08:51:21.575Z,10.30
2022-11-16T08:53:49.745Z,10.50
2022-11-16T08:56:18.316Z,10.50
2022-11-16T08:58:47.379Z,10.50
2022-11-16T09:01:20.470Z,10.60
2022-11-16T09:03:47.683Z,10.70
2022-11-16T09:06:15.207Z,10.80
2022-11-16T09:08:44.161Z,10.80
2022-11-16T09:11:17.473Z,10.90
2022-11-16T09:13:45.442Z,10.90
2022-11-16T09:16:15.696Z,10.90
2022-11-16T09:18:43.864Z,10.90
2022-11-16T09:21:10.601Z,11.00
2022-11-16T09:23:37.322Z,11.00
2022-11-16T09:26:05.492Z,11.10
2022-11-16T09:28:33.150Z,11.20
2022-11-16T09:31:02.191Z,11.10
2022-11-16T09:33:32.241Z,11.20
2022-11-16T09:36:10.120Z,11.20
2022-11-16T09:41:58.036Z,11.30
2022-11-16T09:44:49.290Z,11.40
2022-11-16T09:47:22.804Z,11.50
2022-11-16T09:50:02.704Z,11.50
2022-11-16T09:52:45.761Z,11.40
2022-11-16T09:55:37.946Z,11.30
2022-11-16T09:58:16.121Z,11.40
2022-11-16T10:00:48.842Z,11.40
2022-11-16T10:03:17.718Z,11.30
2022-11-16T10:06:06.449Z,11.30
2022-11-16T10:08:53.009Z,11.30
2022-11-16T10:11:38.420Z,11.20
2022-11-16T10:14:17.235Z,11.20
2022-11-16T10:17:29.161Z,11.20
2022-11-16T10:20:20.051Z,11.20
2022-11-16T10:23:03.854Z,11.20
2022-11-16T10:25:45.748Z,11.20
2022-11-16T10:28:46.020Z,11.20
2022-11-16T10:31:51.541Z,11.20
2022-11-16T10:34:38.013Z,11.40
2022-11-16T10:37:09.118Z,11.40
2022-11-16T10:39:40.879Z,11.40
2022-11-16T10:42:16.507Z,11.70
2022-11-16T10:44:51.873Z,11.90
2022-11-16T10:47:22.013Z,12.10
2022-11-16T10:50:05.225Z,12.20
2022-11-16T10:52:31.919Z,12.30
2022-11-16T10:54:58.865Z,12.60
2022-11-16T10:57:26.558Z,12.60
2022-11-16T10:59:59.026Z,12.60
2022-11-16T11:02:36.159Z,12.50
2022-11-16T11:05:15.279Z,12.60
2022-11-16T11:07:46.653Z,12.60
2022-11-16T11:10:29.941Z,12.60
2022-11-16T11:13:10.711Z,12.70
2022-11-16T11:15:42.751Z,12.70
2022-11-16T11:18:19.556Z,12.80
2022-11-16T11:20:57.739Z,13.00
2022-11-16T11:23:26.369Z,13.20
2022-11-16T11:25:54.157Z,13.20
2022-11-16T11:28:20.929Z,13.20
2022-11-16T11:30:53.776Z,13.30
2022-11-16T11:33:23.684Z,13.50
2022-11-16T11:36:04.585Z,13.60
2022-11-16T11:38:32.385Z,13.60
2022-11-16T11:41:05.266Z,13.60
2022-11-16T11:43:34.299Z,13.70
2022-11-16T11:46:15.516Z,13.90
2022-11-16T11:48:51.824Z,13.80
2022-11-16T11:51:27.376Z,13.70
2022-11-16T11:53:59.209Z,13.80
2022-11-16T11:56:30.012Z,13.80
2022-11-16T11:58:56.914Z,13.90
2022-11-16T12:01:58.974Z,13.60
2022-11-16T12:05:00.128Z,13.70
2022-11-16T12:07:26.779Z,13.80
2022-11-16T12:10:30.670Z,14.00
2022-11-16T12:13:18.548Z,14.00
2022-11-16T12:16:13.893Z,14.20
2022-11-16T12:19:14.509Z,14.10
2022-11-16T12:21:59.835Z,14.30
2022-11-16T12:24:50.703Z,14.60
2022-11-16T12:27:50.163Z,14.80
2022-11-16T12:30:19.857Z,14.90
2022-11-16T12:33:05.026Z,15.20
2022-11-16T12:35:53.327Z,15.40
2022-11-16T12:38:52.095Z,15.70
2022-11-16T12:41:34.103Z,15.80
2022-11-16T12:44:12.898Z,16.00
2022-11-16T12:47:02.637Z,15.90
2022-11-16T12:49:58.221Z,15.80
2022-11-16T12:52:36.955Z,15.70
2022-11-16T12:55:27.247Z,15.70
2022-11-16T12:58:06.659Z,15.80
2022-11-16T13:01:02.640Z,16.00
2022-11-16T13:03:39.484Z,16.10
2022-11-16T13:06:19.550Z,16.00
2022-11-16T13:09:04.034Z,15.70
2022-11-16T13:11:38.050Z,15.70
2022-11-16T13:14:11.643Z,15.70
2022-11-16T13:16:39.493Z,15.80
2022-11-16T13:19:10.148Z,15.70
2022-11-16T13:21:54.269Z,15.80
2022-11-16T13:24:46.201Z,15.90
2022-11-16T13:27:43.771Z,16.20
2022-11-16T13:30:23.104Z,16.20
2022-11-16T13:33:12.349Z,16.10
2022-11-16T13:35:39.524Z,16.00
2022-11-16T13:38:12.601Z,15.70
2022-11-16T13:40:40.547Z,15.80
2022-11-16T13:43:10.216Z,15.70
2022-11-16T13:45:45.711Z,15.80
2022-11-16T13:48:23.192Z,15.60
2022-11-16T13:50:58.592Z,15.80
2022-11-16T13:56:48.891Z,15.80
2022-11-16T13:59:22.721Z,15.40
2022-11-16T14:02:01.982Z,15.30
2022-11-16T14:04:38.730Z,15.00
2022-11-16T14:07:25.539Z,14.70
2022-11-16T14:09:52.244Z,14.50
2022-11-16T14:12:37.577Z,14.50
2022-11-16T14:15:15.071Z,14.50
2022-11-16T14:17:55.570Z,14.30
2022-11-16T14:20:48.987Z,14.50
2022-11-16T14:23:31.258Z,14.30
2022-11-16T14:26:18.759Z,14.00
2022-11-16T14:28:52.882Z,13.90
2022-11-16T14:31:30.007Z,13.90
2022-11-16T14:33:59.408Z,13.70
2022-11-16T14:36:43.950Z,13.60
2022-11-16T14:39:32.893Z,13.70
2022-11-16T14:42:04.441Z,13.70
2022-11-16T14:44:37.827Z,13.80
2022-11-16T14:47:05.011Z,13.80
2022-11-16T14:49:35.916Z,13.90
2022-11-16T14:52:04.834Z,13.90
2022-11-16T14:55:06.271Z,14.00
2022-11-16T14:57:33.201Z,14.00
2022-11-16T15:00:11.289Z,14.00
2022-11-16T15:02:40.165Z,14.00
2022-11-16T15:05:07.442Z,14.00
2022-11-16T15:07:34.573Z,13.90
2022-11-16T15:10:01.601Z,13.70
2022-11-16T15:12:41.546Z,13.60
2022-11-16T15:15:11.318Z,13.50
2022-11-16T15:17:43.854Z,13.40
2022-11-16T15:20:16.608Z,13.40
2022-11-16T15:22:48.736Z,13.20
2022-11-16T15:25:35.679Z,13.00
2022-11-16T15:28:27.068Z,12.80
2022-11-16T15:30:58.879Z,12.70
2022-11-16T15:33:36.851Z,12.60
2022-11-16T15:36:25.153Z,12.60
2022-11-16T15:38:55.428Z,12.50
2022-11-16T15:41:24.048Z,12.40
2022-11-16T15:44:13.208Z,12.30
2022-11-16T15:46:44.838Z,12.40
2022-11-16T15:49:36.177Z,12.30
2022-11-16T15:52:03.301Z,12.20
2022-11-16T15:54:54.826Z,12.10
2022-11-16T15:57:23.869Z,12.10
2022-11-16T15:59:55.326Z,12.10
2022-11-16T16:02:27.427Z,12.00
2022-11-16T16:04:54.131Z,12.00
2022-11-16T16:07:50.475Z,12.00
2022-11-16T16:10:26.600Z,11.90
2022-11-16T16:12:57.842Z,11.90
2022-11-16T16:15:34.257Z,11.80
2022-11-16T16:18:04.382Z,11.80
2022-11-16T16:20:42.288Z,11.80
2022-11-16T16:23:17.816Z,11.80
2022-11-16T16:25:50.660Z,11.70
2022-11-16T16:28:17.771Z,11.70
2022-11-16T16:30:44.464Z,11.80
2022-11-16T16:33:19.374Z,11.80
2022-11-16T16:35:52.130Z,11.70
2022-11-16T16:38:18.850Z,11.70
2022-11-16T16:40:45.529Z,11.70
2022-11-16T16:43:13.668Z,11.70
2022-11-16T16:45:43.682Z,11.70
2022-11-16T16:48:13.785Z,11.60
2022-11-16T16:50:40.460Z,11.70
2022-11-16T16:53:10.409Z,11.70
2022-11-16T16:55:38.220Z,11.70
2022-11-16T16:58:06.183Z,11.60
2022-11-16T17:00:33.319Z,11.60
2022-11-16T17:03:01.568Z,11.60
2022-11-16T17:05:30.464Z,11.60
2022-11-16T17:07:57.225Z,11.60
2022-11-16T17:10:24.313Z,11.50
2022-11-16T17:12:54.137Z,11.50
2022-11-16T17:15:21.237Z,11.50
2022-11-16T17:17:48.285Z,11.40
2022-11-16T17:20:16.243Z,11.40
2022-11-16T17:22:43.298Z,11.30
2022-11-16T17:25:10.551Z,11.30
2022-11-16T17:27:37.479Z,11.30
2022-11-16T17:30:04.643Z,11.20
2022-11-16T17:32:31.406Z,11.20
2022-11-16T17:34:58.083Z,11.20
2022-11-16T17:37:24.829Z,11.20
2022-11-16T17:39:51.571Z,11.10
2022-11-16T17:42:18.405Z,11.10
2022-11-16T17:44:48.093Z,11.10
2022-11-16T17:47:14.873Z,11.10
2022-11-16T17:49:41.759Z,11.00
2022-11-16T17:52:08.575Z,11.00
2022-11-16T17:54:35.286Z,11.00
2022-11-16T17:57:02.009Z,11.00
2022-11-16T17:59:29.980Z,10.90
2022-11-16T18:02:00.253Z,10.90
2022-11-16T18:04:27.778Z,10.90
2022-11-16T18:06:55.934Z,10.90
2022-11-16T18:09:22.929Z,10.80
2022-11-16T18:11:49.604Z,10.80
2022-11-16T18:14:17.809Z,10.80
2022-11-16T18:16:48.016Z,10.80
2022-11-16T18:19:17.850Z,10.70
2022-11-16T18:21:47.046Z,10.70
2022-11-16T18:24:14.192Z,10.70
2022-11-16T18:26:41.749Z,10.70
2022-11-16T18:29:12.604Z,10.60
2022-11-16T18:31:39.459Z,10.60
2022-11-16T18:34:08.558Z,10.50
2022-11-16T18:36:35.375Z,10.50
2022-11-16T18:39:02.073Z,10.50
2022-11-16T18:41:32.753Z,10.50
2022-11-16T18:44:01.005Z,10.40
2022-11-16T18:46:32.335Z,10.40
2022-11-16T18:48:59.403Z,10.40
2022-11-16T18:51:27.471Z,10.40
2022-11-16T18:53:54.724Z,10.40
2022-11-16T18:56:21.756Z,10.30
2022-11-16T18:58:51.383Z,10.40
2022-11-16T19:01:21.923Z,10.40
2022-11-16T19:03:50.692Z,10.30
2022-11-16T19:06:22.118Z,10.30
2022-11-16T19:08:56.389Z,10.30
2022-11-16T19:11:24.192Z,10.30
2022-11-16T19:14:00.535Z,10.20
2022-11-16T19:16:28.053Z,10.20
2022-11-16T19:18:55.223Z,10.20
2022-11-16T19:21:22.150Z,10.20
2022-11-16T19:23:53.686Z,10.10
2022-11-16T19:26:23.470Z,10.10
2022-11-16T19:28:51.624Z,10.10
2022-11-16T19:31:26.641Z,10.10
2022-11-16T19:34:04.891Z,10.10
2022-11-16T19:36:32.949Z,10.10
2022-11-16T19:39:00.079Z,10.10
2022-11-16T19:41:27.525Z,10.10
2022-11-16T19:43:59.567Z,10.10
2022-11-16T19:46:28.321Z,10.10
2022-11-16T19:48:56.039Z,10.00
2022-11-16T19:51:28.845Z,10.00
2022-11-16T19:53:56.194Z,10.00
2022-11-16T19:56:24.096Z,10.00
2022-11-16T19:58:51.459Z,10.00
2022-11-16T20:01:25.262Z,10.00
2022-11-16T20:03:52.194Z,10.00
2022-11-16T20:06:22.949Z,9.90
2022-11-16T20:08:52.469Z,9.90
2022-11-16T20:11:21.808Z,10.00
2022-11-16T20:13:49.868Z,10.00
2022-11-16T20:16:18.220Z,10.00
2022-11-16T20:18:45.525Z,9.90
2022-11-16T20:21:17.519Z,9.90
2022-11-16T20:23:45.429Z,9.90
2022-11-16T20:26:15.141Z,9.90
2022-11-16T20:28:42.974Z,9.90
2022-11-16T20:31:17.981Z,10.00
2022-11-16T20:33:56.071Z,9.90
2022-11-16T20:36:24.735Z,10.00
2022-11-16T20:38:52.573Z,10.00
2022-11-16T20:41:22.073Z,10.00
2022-11-16T20:43:55.287Z,10.10
2022-11-16T20:46:24.343Z,10.10
2022-11-16T20:48:51.495Z,10.10
2022-11-16T20:51:20.581Z,10.10
2022-11-16T20:53:48.607Z,10.10
2022-11-16T20:56:17.401Z,10.10
2022-11-16T20:58:44.374Z,10.20
2022-11-16T21:01:12.825Z,10.20
2022-11-16T21:03:40.376Z,10.20
2022-11-16T21:06:08.720Z,10.30
2022-11-16T21:08:36.997Z,10.30
2022-11-16T21:11:15.369Z,10.30
2022-11-16T21:14:01.309Z,10.30
2022-11-16T21:16:28.103Z,10.40
2022-11-16T21:18:55.676Z,10.50
2022-11-16T21:21:22.994Z,10.50
2022-11-16T21:23:56.198Z,10.50
2022-11-16T21:26:27.822Z,10.60
2022-11-16T21:28:54.659Z,10.50
2022-11-16T21:31:27.555Z,10.50
2022-11-16T21:33:55.565Z,10.50
2022-11-16T21:36:24.619Z,10.60
2022-11-16T21:38:52.384Z,10.60
2022-11-16T21:41:21.449Z,10.60
2022-11-16T21:43:48.700Z,10.60
2022-11-16T21:46:18.223Z,10.60
2022-11-16T21:48:47.053Z,10.60
2022-11-16T21:51:16.499Z,10.70
2022-11-16T21:53:43.840Z,10.60
2022-11-16T21:56:16.558Z,10.60
2022-11-16T21:58:43.933Z,10.60
2022-11-16T22:01:11.938Z,10.60
2022-11-16T22:03:39.198Z,10.60
2022-11-16T22:06:26.552Z,10.60
2022-11-16T22:08:53.389Z,10.60
2022-11-16T22:11:22.098Z,10.60
2022-11-16T22:13:50.116Z,10.70
2022-11-16T22:16:18.594Z,10.70
2022-11-16T22:18:45.566Z,10.70
2022-11-16T22:21:12.714Z,10.70
2022-11-16T22:23:39.871Z,10.70
2022-11-16T22:26:08.420Z,10.60
2022-11-16T22:28:36.261Z,10.70
2022-11-16T22:31:09.427Z,10.70
2022-11-16T22:33:37.082Z,10.70
2022-11-16T22:36:04.591Z,10.70
2022-11-16T22:38:31.787Z,10.70
2022-11-16T22:40:58.519Z,10.70
2022-11-16T22:43:30.286Z,10.80
2022-11-16T22:46:02.245Z,10.70
2022-11-16T22:48:36.601Z,10.70
2022-11-16T22:51:09.323Z,10.80
2022-11-16T22:53:36.551Z,10.90
2022-11-16T22:56:05.826Z,10.80
2022-11-16T22:58:32.633Z,10.90
2022-11-16T23:00:59.380Z,10.90
2022-11-16T23:03:26.328Z,10.90
2022-11-16T23:05:53.068Z,11.00
2022-11-16T23:08:24.767Z,11.00
2022-11-16T23:11:21.087Z,11.00
2022-11-16T23:14:07.070Z,11.00
2022-11-16T23:16:34.209Z,11.10
2022-11-16T23:19:01.218Z,11.00
2022-11-16T23:21:46.889Z,11.10
2022-11-16T23:24:34.113Z,11.10
2022-11-16T23:27:21.923Z,11.10
2022-11-16T23:29:49.889Z,11.10
2022-11-16T23:32:16.832Z,11.10
2022-11-16T23:34:43.496Z,11.10
2022-11-16T23:37:10.204Z,11.10
2022-11-16T23:39:36.879Z,11.10
2022-11-16T23:42:22.171Z,11.10
2022-11-16T23:44:48.888Z,11.10
2022-11-16T23:47:15.892Z,11.10
2022-11-16T23:49:42.717Z,11.20
2022-11-16T23:52:09.475Z,11.10
2022-11-16T23:54:36.175Z,11.10
2022-11-16T23:57:03.623Z,11.10
2022-11-16T23:59:30.499Z,11.10
